Milford Square, PA

12:12 PM EDT on March 28, 2015 (GMT -0400)
Quakertown | | Change Station
CLOSE
Current Station
Airport
Location: Quakertown,
Elevation: 525 ft
Nearby Weather Stations

Elev 525 ft 40.44 °N, 75.38 °W | Updated 17 minutes ago

Overcast
Overcast
34 °F
Feels Like 25 °F
N
12
Wind Variable Wind from NNW
Gusts 21 mph

Today
High -- | Low -- °F
--% Chance of Precip.
Yesterday
High -- | Low -- °F
Precip. -- in
6:52 AM 7:21 PM
Waxing Gibbous, 63% visible
Pressure 29.89 in
Visibility 10.0 miles
Clouds Overcast 6000 ft
Windchill 25 °F
Dew Point 18 °F
Humidity 52%
Rainfall 0.00 in
Snow Depth Not available.
UV 2 out of 12
Pollen 8.80 out of 12
Air Quality Not available.
Flu Activity Not available.
METAR KUKT 281555Z AUTO 33010G18KT 290V360 10SM OVC060 01/M08 A2989 RMK AO1

More Conditions Fewer Conditions

Pressure 29.89 in
Visibility 10.0 miles
Clouds Overcast 6000 ft
Windchill 25 °F
Dew Point 18 °F
Humidity 52%
Rainfall 0.00 in
Snow Depth Not available.
UV 2 out of 12
Pollen 8.80 out of 12
Air Quality Not available.
Flu Activity Not available.
METAR KUKT 281555Z AUTO 33010G18KT 290V360 10SM OVC060 01/M08 A2989 RMK AO1

More Conditions Fewer Conditions

10-Day Weather Forecast

Almanac

Astronomy

Mar. 28, 2015 Rise Set
Actual Time
Civil Twilight
Nautical Twilight
Astronomical Twilight
Moon
Length of Visible Light
Length of Day
Tomorrow will be .
, % of the Moon is Illuminated

Today's Extremes

State Highs State Lows

Community

WunderPhotos

Upload Photos

1,809,016 photos uploaded!

WunderBlogs® & News

Nearby

Air Quality

  Air Quality AQ Index Pollutant
Not available.

Snow Depth

Station Depth Elevation

Earthquake Activity

City Distance Mag. Time & Date
Minimum magnitude displayed is 2.5.

Coastal Water Temperatures

Place Temperature

Stations

Nearby Weather Stations

Station Location Temp. Windchill Dew Point Humidity Wind Precip. Elev Updated Type